San Lorenzo, CA

7:41 PM PDT on October 20, 2014 (GMT -0700)
KCASANLO4 | Change Station
CLOSE
Current Station
Personal Weather Station
Location: San Lorenzo, CA
Elevation: 9 ft
Nearby Weather Stations

Elev 9 ft 37.67 °N, 122.14 °W | Updated 4 seconds ago

Partly Cloudy
Partly Cloudy
63.3 °F
Feels Like 63.3 °F
N
3.3
Wind Variable Wind from NE
Gusts 9.2 mph

Today
High -- | Low -- °F
--% Chance of Precip.
Yesterday
High -- | Low -- °F
Precip. -- in
7:21 AM 6:24 PM
Waning Crescent, 8% visible
Pressure 30.02 in
Visibility 10.0 miles
Clouds Scattered Clouds 7000 ft
Dew Point 56 °F
Humidity 78%
Rainfall 0.00 in
Snow Depth Not available.
UV 0.0 out of 12
Pollen 1.80 out of 12
Ozone Good
PM2.5 Good
Flu Activity Sporadic
METAR KHWD 210154Z 28009KT 10SM SCT070 19/14 A2999 RMK AO2 SLP164 T01940144

More Conditions Fewer Conditions

Pressure 30.02 in
Visibility 10.0 miles
Clouds Scattered Clouds 7000 ft
Dew Point 56 °F
Humidity 78%
Rainfall 0.00 in
Snow Depth Not available.
UV 0.0 out of 12
Pollen 1.80 out of 12
Ozone Good
PM2.5 Good
Flu Activity Sporadic
METAR KHWD 210154Z 28009KT 10SM SCT070 19/14 A2999 RMK AO2 SLP164 T01940144

More Conditions Fewer Conditions

10-Day Weather Forecast

Almanac

Astronomy

Oct. 20, 2014 Rise Set
Actual Time 7:21 AM PDT 6:24 PM PDT
Civil Twilight 6:55 AM PDT 6:50 PM PDT
Nautical Twilight 6:24 AM PDT 7:21 PM PDT
Astronomical Twilight 5:54 AM PDT 7:51 PM PDT
Moon 4:18 AM PDT (10/20) 4:46 PM PDT (10/20)
Length of Visible Light 11h 55m
Length of Day
11h 02m
Tomorrow will be 2m 18s shorter.
Waning Crescent, 8% of the Moon is Illuminated
Today
Waning Crescent
Oct 23
New
Oct 30
First Quarter
Nov 6
Full
Nov 14
Last Quarter

Today's Extremes

State Highs State Lows

Community

WunderPhotos

Upload Photos

1,763,580 photos uploaded!

Nearby

Air Quality

  Air Quality AQ Index Pollutant
Yesterday Good
OZONE
Yesterday Good
PM2.5
Current Good
OZONE
Current Good
PM2.5
Monday Good
PM2.5
Tuesday Good
PM2.5
Wednesday Good
PM2.5
Thursday Good
PM2.5
Friday Good
PM2.5
Saturday Good
PM2.5

Snow Depth

Station Depth Elevation
Blue Lakes 0 in 8000 ft
Forestdale Creek 0 in 8029 ft
Echo Peak 1 in 7800 ft
Ebbetts Pass 0 in 8700 ft
Burnside Lake 0 in 8139 ft

Earthquake Activity

City Distance Mag. Time & Date
East Foothills, California 28 miles 2.6 8:16 AM PDT
2014-10-18
Minimum magnitude displayed is 2.5.

Coastal Water Temperatures

Place Temperature
No Stations Reporting

Nearby Weather Stations